Terminal Aerodrome Forecast
Issued by NWS Sioux Falls, SD

Home | Current Version | Previous Version | Graphics & Text | Print | Product List | Glossary On
Versions: 1 2 3 4 5 6 7 8 9 10 11 12 13 14 15
000
FTUS43 KFSD 012156 AAA
TAFHON
TAF AMD
KHON 012156Z 0122/0218 30013G19KT P6SM BKN050
     FM020000 31007KT P6SM SCT060
     FM020300 VRB04KT P6SM SKC
     FM021000 15007KT P6SM SCT120
     FM021500 15014G23KT P6SM BKN090=

USA.gov is the U.S. government's official web portal to all federal, state and local government web resources and services.